createdAt,value
2019-05-20T00:04:07.233Z,93883.55
2019-05-20T00:09:09.449Z,93888.41
2019-05-20T00:14:12.177Z,93888.39
2019-05-20T00:19:14.349Z,93880.05
2019-05-20T00:24:16.212Z,93880.16
2019-05-20T00:29:18.076Z,93882.12
2019-05-20T00:34:34.320Z,93883.46
2019-05-20T00:39:22.374Z,93867.89
2019-05-20T00:44:25.517Z,93856.62
2019-05-20T00:49:27.348Z,93853.91
2019-05-20T00:54:29.362Z,93848.83
2019-05-20T00:59:31.949Z,93848.33
2019-05-20T01:04:34.858Z,93840.84
2019-05-20T01:09:37.120Z,93850.45
2019-05-20T01:14:39.095Z,93845.57
2019-05-20T01:19:41.647Z,93840.84
2019-05-20T01:24:43.585Z,93837.83
2019-05-20T01:29:45.582Z,93825.72
2019-05-20T01:34:47.983Z,93831.39
2019-05-20T01:39:50.158Z,93840.44
2019-05-20T01:44:51.933Z,93844.14
2019-05-20T01:49:53.714Z,93839.00
2019-05-20T01:54:55.911Z,93838.38
2019-05-20T01:59:57.255Z,93833.03
2019-05-20T02:04:58.554Z,93835.78
2019-05-20T02:09:59.906Z,93819.37
2019-05-20T02:15:02.098Z,93821.94
2019-05-20T02:20:04.302Z,93820.91
2019-05-20T02:25:05.664Z,93825.91
2019-05-20T02:30:07.010Z,93816.30
2019-05-20T02:35:08.387Z,93816.08
2019-05-20T02:40:10.453Z,93802.56
2019-05-20T02:45:11.753Z,93805.42
2019-05-20T02:50:13.874Z,93806.70
2019-05-20T02:55:15.209Z,93812.31
2019-05-20T03:00:17.572Z,93817.82
2019-05-20T03:05:19.062Z,93816.84
2019-05-20T03:10:21.413Z,93816.28
2019-05-20T03:15:22.932Z,93814.05
2019-05-20T03:20:24.251Z,93791.02
2019-05-20T03:25:25.649Z,93790.14
2019-05-20T03:30:27.102Z,93793.59
2019-05-20T03:35:28.463Z,93801.62
2019-05-20T03:40:29.866Z,93776.06
2019-05-20T03:45:31.230Z,93778.54
2019-05-20T03:50:32.604Z,93793.66
2019-05-20T03:55:34.055Z,93776.22
2019-05-20T04:00:49.360Z,93785.59
2019-05-20T04:05:50.878Z,93781.80
2019-05-20T04:16:24.834Z,93777.52
2019-05-20T04:21:27.237Z,93773.41
2019-05-20T04:26:28.676Z,93760.84
2019-05-20T04:31:30.008Z,93771.15
2019-05-20T04:36:31.407Z,93776.16
2019-05-20T04:41:35.594Z,93793.56
2019-05-20T04:46:34.573Z,93804.84
2019-05-20T04:51:36.023Z,93813.09
2019-05-20T04:56:38.270Z,93804.31
2019-05-20T05:01:39.880Z,93809.84
2019-05-20T05:06:41.454Z,93805.95
2019-05-20T05:11:42.857Z,93808.86
2019-05-20T05:16:44.371Z,93805.47
2019-05-20T05:21:45.779Z,93811.87
2019-05-20T05:26:48.022Z,93795.33
2019-05-20T05:31:49.725Z,93801.48
2019-05-20T05:36:51.049Z,93784.90
2019-05-20T05:41:52.390Z,93779.52
2019-05-20T05:46:53.716Z,93787.02
2019-05-20T05:51:55.088Z,93779.31
2019-05-20T05:56:56.445Z,93788.73
2019-05-20T06:01:57.770Z,93798.03
2019-05-20T06:06:59.102Z,93815.53
2019-05-20T06:12:00.405Z,93816.19
2019-05-20T06:17:01.782Z,93810.55
2019-05-20T06:22:03.181Z,93808.44
2019-05-20T06:27:05.271Z,93813.12
2019-05-20T06:32:06.610Z,93814.97
2019-05-20T06:37:08.022Z,93815.28
2019-05-20T06:42:09.313Z,93817.75
2019-05-20T06:47:10.655Z,93809.12
2019-05-20T06:52:12.034Z,93816.32
2019-05-20T06:57:13.588Z,93817.80
2019-05-20T07:02:14.851Z,93816.26
2019-05-20T07:07:20.942Z,93823.67
2019-05-20T07:12:17.630Z,93826.84
2019-05-20T07:17:18.944Z,93835.14
2019-05-20T07:22:29.646Z,93819.45
2019-05-20T07:27:30.966Z,93816.41
2019-05-20T07:32:32.302Z,93815.72
2019-05-20T07:37:34.386Z,93818.45
2019-05-20T07:42:35.727Z,93824.88
2019-05-20T07:47:37.818Z,93813.26
2019-05-20T07:52:39.166Z,93819.98
2019-05-20T07:57:40.505Z,93820.91
2019-05-20T08:02:41.906Z,93819.66
2019-05-20T08:07:51.884Z,93819.61
2019-05-20T08:12:45.395Z,93822.23
2019-05-20T08:17:46.791Z,93822.20
2019-05-20T08:22:48.208Z,93825.07
2019-05-20T08:27:50.306Z,93844.92
2019-05-20T08:32:51.625Z,93841.36
2019-05-20T08:37:52.985Z,93836.89
2019-05-20T08:42:54.457Z,93832.57
2019-05-20T08:47:55.836Z,93835.65
2019-05-20T08:52:57.245Z,93841.55
2019-05-20T08:57:58.597Z,93838.63
2019-05-20T09:02:59.932Z,93842.67
2019-05-20T09:08:03.501Z,93845.66
2019-05-20T09:13:02.821Z,93837.80
2019-05-20T09:18:04.194Z,93842.73
2019-05-20T09:23:05.560Z,93841.64
2019-05-20T09:28:06.881Z,93833.86
2019-05-20T09:33:08.236Z,93839.22
2019-05-20T09:38:20.080Z,93838.66
2019-05-20T09:43:11.802Z,93837.66
2019-05-20T09:48:13.105Z,93840.30
2019-05-20T09:53:14.549Z,93840.70
2019-05-20T09:58:15.903Z,93839.55
2019-05-20T10:03:17.230Z,93838.34
2019-05-20T10:08:34.523Z,93848.59
2019-05-20T10:13:19.948Z,93851.27
2019-05-20T10:18:35.980Z,93847.08
2019-05-20T10:23:22.684Z,93847.95
2019-05-20T10:28:24.791Z,93857.16
2019-05-20T10:33:26.125Z,93854.62
2019-05-20T10:38:27.602Z,93855.04
2019-05-20T10:43:29.813Z,93856.77
2019-05-20T10:48:31.166Z,93847.12
2019-05-20T10:53:32.527Z,93849.24
2019-05-20T10:58:33.910Z,93855.91
2019-05-20T11:03:35.158Z,93858.33
2019-05-20T11:08:36.514Z,93856.49
2019-05-20T11:13:38.542Z,93853.41
2019-05-20T11:18:39.894Z,93845.52
2019-05-20T11:23:41.221Z,93854.99
2019-05-20T11:28:42.491Z,93860.43
2019-05-20T11:33:43.798Z,93854.34
2019-05-20T11:38:45.073Z,93851.06
2019-05-20T11:43:46.392Z,93855.88
2019-05-20T11:48:47.654Z,93867.32
2019-05-20T11:53:48.903Z,93866.58
2019-05-20T11:58:50.161Z,93867.02
2019-05-20T12:03:52.178Z,93866.59
2019-05-20T12:08:53.454Z,93865.38
2019-05-20T12:13:54.710Z,93867.81
2019-05-20T12:18:56.003Z,93871.52
2019-05-20T12:23:57.290Z,93864.19
2019-05-20T12:28:58.605Z,93866.66
2019-05-20T12:33:59.845Z,93870.95
2019-05-20T12:39:01.150Z,93873.14
2019-05-20T12:44:11.654Z,93866.32
2019-05-20T12:49:04.084Z,93868.64
2019-05-20T12:54:05.481Z,93884.98
2019-05-20T12:59:06.992Z,93878.87
2019-05-20T13:04:08.546Z,93879.34
2019-05-20T13:09:09.901Z,93892.30
2019-05-20T13:14:11.628Z,93897.02
2019-05-20T13:19:13.030Z,93906.26
2019-05-20T13:24:14.489Z,93899.44
2019-05-20T13:29:16.345Z,93910.94
2019-05-20T13:34:18.787Z,93912.47
2019-05-20T13:39:20.125Z,93909.94
2019-05-20T13:44:21.478Z,93915.28
2019-05-20T13:49:23.156Z,93913.22
2019-05-20T13:54:24.539Z,93922.80
2019-05-20T13:59:26.209Z,93927.58
2019-05-20T14:04:27.683Z,93931.91
2019-05-20T14:09:29.053Z,93935.67
2019-05-20T14:14:30.444Z,93941.13
2019-05-20T14:19:31.825Z,93939.88
2019-05-20T14:24:33.189Z,93941.27
2019-05-20T14:29:34.583Z,93937.97
2019-05-20T14:34:36.194Z,93945.94
2019-05-20T14:39:37.788Z,93941.00
2019-05-20T14:44:39.133Z,93939.55
2019-05-20T14:49:40.473Z,93949.25
2019-05-20T14:54:41.797Z,93947.70
2019-05-20T14:59:43.955Z,93940.52
2019-05-20T15:04:45.266Z,93939.13
2019-05-20T15:09:46.640Z,93928.98
2019-05-20T15:14:48.861Z,93934.92
2019-05-20T15:19:50.229Z,93930.31
2019-05-20T15:24:51.600Z,93925.42
2019-05-20T15:29:52.975Z,93936.63
2019-05-20T15:34:54.287Z,93925.58
2019-05-20T15:39:55.685Z,93924.83
2019-05-20T15:44:57.017Z,93929.25
2019-05-20T15:49:58.688Z,93925.53
2019-05-20T15:54:59.842Z,93932.05
2019-05-20T16:00:01.240Z,93936.48
2019-05-20T16:05:02.559Z,93929.84
2019-05-20T16:10:03.921Z,93927.27
2019-05-20T16:15:05.357Z,93930.45
2019-05-20T16:20:07.377Z,93931.08
2019-05-20T16:25:08.765Z,93927.19
2019-05-20T16:30:10.338Z,93938.14
2019-05-20T16:35:11.712Z,93927.11
2019-05-20T16:40:13.033Z,93945.51
2019-05-20T16:45:14.415Z,93937.29
2019-05-20T16:50:16.089Z,93940.54
2019-05-20T16:55:17.480Z,93949.63
2019-05-20T17:00:30.808Z,93944.16
2019-05-20T17:05:20.087Z,93955.52
2019-05-20T17:10:21.433Z,93952.41
2019-05-20T17:15:22.784Z,93944.91
2019-05-20T17:20:24.124Z,93951.02
2019-05-20T17:25:26.237Z,93965.69
2019-05-20T17:30:27.583Z,93961.66
2019-05-20T17:35:28.873Z,93969.77
2019-05-20T17:40:30.184Z,93967.92
2019-05-20T17:45:31.539Z,93971.56
2019-05-20T17:50:32.855Z,93978.77
2019-05-20T17:55:34.179Z,93975.50
2019-05-20T18:00:35.525Z,93965.61
2019-05-20T18:05:36.885Z,93964.13
2019-05-20T18:10:38.265Z,93977.06
2019-05-20T18:15:39.670Z,93958.50
2019-05-20T18:20:41.182Z,93958.64
2019-05-20T18:25:42.503Z,93953.30
2019-05-20T18:30:43.854Z,93953.96
2019-05-20T18:35:45.155Z,93959.02
2019-05-20T18:40:46.503Z,93964.06
2019-05-20T18:45:47.837Z,93958.17
2019-05-20T18:50:49.149Z,93959.34
2019-05-20T18:55:50.522Z,93969.28
2019-05-20T19:00:52.257Z,93972.65
2019-05-20T19:05:53.736Z,93983.58
2019-05-20T19:10:55.161Z,93987.73
2019-05-20T19:15:56.556Z,93993.00
2019-05-20T19:20:57.927Z,93996.84
2019-05-20T19:25:59.375Z,94012.14
2019-05-20T19:31:00.892Z,94023.09
2019-05-20T19:36:02.730Z,94013.77
2019-05-20T19:41:04.036Z,94010.78
2019-05-20T19:46:05.341Z,94020.42
2019-05-20T19:51:06.637Z,94013.02
2019-05-20T19:56:07.928Z,94012.78
2019-05-20T20:01:12.732Z,94004.34
2019-05-20T20:06:14.061Z,94009.48
2019-05-20T20:11:15.516Z,94009.70
2019-05-20T20:16:18.023Z,94010.02
2019-05-20T20:21:18.188Z,94007.96
2019-05-20T20:26:19.492Z,94013.11
2019-05-20T20:31:20.853Z,94017.48
2019-05-20T20:36:22.149Z,94014.75
2019-05-20T20:41:27.991Z,94013.31
2019-05-20T20:46:29.937Z,94025.36
2019-05-20T20:51:33.171Z,94030.90
2019-05-20T20:56:35.049Z,94032.96
2019-05-20T21:01:38.343Z,94030.53
2019-05-20T21:06:43.504Z,94043.07
2019-05-20T21:11:44.816Z,94038.03
2019-05-20T21:16:46.145Z,94040.27
2019-05-20T21:21:47.493Z,94043.34
2019-05-20T21:26:53.982Z,94047.00
2019-05-20T21:31:56.758Z,94055.19
2019-05-20T21:36:58.957Z,94050.78
2019-05-20T21:42:02.110Z,94074.20
2019-05-20T21:47:04.159Z,94062.98
2019-05-20T21:52:06.289Z,94055.22
2019-05-20T21:57:07.578Z,94045.38
2019-05-20T22:02:08.975Z,94049.06
2019-05-20T22:07:10.340Z,94042.05
2019-05-20T22:12:11.719Z,94042.34
2019-05-20T22:17:13.819Z,94047.41
2019-05-20T22:22:21.442Z,94041.33
2019-05-20T22:27:22.638Z,94021.30
2019-05-20T22:32:23.903Z,94021.23
2019-05-20T22:37:26.659Z,94023.22
2019-05-20T22:42:28.048Z,94011.48
2019-05-20T22:47:29.361Z,93991.48
2019-05-20T22:52:30.667Z,93993.34
2019-05-20T22:57:31.945Z,93999.56
2019-05-20T23:02:33.225Z,93977.65
2019-05-20T23:07:34.617Z,93995.95
2019-05-20T23:12:35.929Z,93986.55
2019-05-20T23:17:37.225Z,93975.98
2019-05-20T23:22:38.530Z,93968.78
2019-05-20T23:27:40.559Z,93957.63
2019-05-20T23:32:41.874Z,93975.67
2019-05-20T23:37:43.170Z,93991.08
2019-05-20T23:42:44.597Z,94002.02
2019-05-20T23:47:45.922Z,93995.87
2019-05-20T23:52:47.232Z,93988.77
2019-05-20T23:57:48.531Z,94011.64
